< < Back
Terminal Aerodrome Forecast


Current Version              Previous Versions:   1  2  3  4  5  6  7  8  9  

Terminal Aerodrome Forecast

044
FTUS44 KMOB 261120
TAFMOB
TAF
KMOB 261120Z 2612/2712 27003KT P6SM FEW060 SCT110 SCT250
     FM261800 18007KT P6SM VCTS SCT040CB SCT250
     FM270200 VRB03KT P6SM FEW050 SCT200=

Latest METAR

058
SAUS80 KWBC 261700 CCA
MTRMOB
METAR KMOB 261656Z VRB03KT 10SM SCT049 BKN060 BKN250 34/21 A3011 RMK AO2
SLP193 T03440211


USA.gov is the U.S. government's official web portal to all federal, state and local government web resources and services.